Informes de METAR cercanos

 

LEXJ - Santander/Parayas, Spain
Distance from station: ESE 6km
Actualización: 23/10/2021 12:30
Despejado
Despejado
 Viento del NE
Viento: NE 2 km/h
Temperatura: 15°C
Rocío: 9°C
Humedad: 68%
Barómetro: 1024 hPa
Resumen: Despejado
Visibility: greater than 10 km
2021/10/23 10:30 LEXJ 231030Z 04001KT CAVOK 15/09 Q1024
LEBB - Bilbao/Sondica, Spain
Distance from station: ESE 80km
Actualización: 23/10/2021 12:30
Few Clouds
Few Clouds
 Viento del ESE
Viento: ESE 6 km/h
Temperatura: 16°C
Rocío: 9°C
Humedad: 63%
Barómetro: 1024 hPa
Clouds: Few Clouds
Visibility: 10 km
Cloud details: Few Clouds 1189 m
2021/10/23 10:30 LEBB 231030Z 12003KT 070V220 9999 FEW039 16/09 Q1024 NOSIG
 
LEBL - Barcelona Airpor, Spain
Distance from station: ESE 726km
Actualización: 23/10/2021 12:30
Few Clouds
Few Clouds
 Viento del NNO
Viento: NNO 17 km/h
Temperatura: 17°C
Rocío: 7°C
Humedad: 52%
Barómetro: 1022 hPa
Clouds: Few Clouds
Visibility: 10 km
Cloud details: Few Clouds 1219 m
2021/10/23 10:30 LEBL 231030Z 33009KT 300V360 9999 FEW040 17/07 Q1022 NOSIG
LEMD - Madrid/Barajas, Spain
Distance from station: S 325km
Actualización: 23/10/2021 12:30
Despejado
Despejado
 Viento del NO
Viento: NO 6 km/h
Temperatura: 14°C
Rocío: 4°C
Humedad: 51%
Barómetro: 1023 hPa
Resumen: Despejado
Visibility: greater than 10 km
2021/10/23 10:30 LEMD 231030Z 31003KT CAVOK 14/04 Q1023 NOSIG
 
LPPT - Lisbon/Portela, Portugal
Distance from station: SO 663km
Actualización: 23/10/2021 12:00
Despejado
Despejado
 Viento del ENE
Viento: ENE 19 km/h
Temperatura: 18°C
Rocío: 8°C
Humedad: 52%
Barómetro: 1022 hPa
Resumen: Despejado
Visibility: greater than 10 km
2021/10/23 10:00 LPPT 231000Z 06010KT 010V100 CAVOK 18/08 Q1022
LECO - La Coruna/Alvedr, Spain
Distance from station: O 349km
Actualización: 23/10/2021 12:30
Despejado
Despejado
 Viento del varies
Viento: varies 4 km/h
Temperatura: 16°C
Rocío: 12°C
Humedad: 77%
Barómetro: 1022 hPa
Resumen: Despejado
Visibility: greater than 10 km
2021/10/23 10:30 LECO 231030Z VRB02KT CAVOK 16/12 Q1022 NOSIG
 
LEST - Santiago/Labacol, Spain
Distance from station: O 358km
Actualización: 23/10/2021 12:30
Despejado
Despejado
 Viento del SSE
Viento: SSE 7 km/h
Temperatura: 13°C
Rocío: 8°C
Humedad: 72%
Barómetro: 1023 hPa
Resumen: Despejado
Visibility: greater than 10 km
2021/10/23 10:30 LEST 231030Z 15004KT 120V190 CAVOK 13/08 Q1023 NOSIG
EBBR - Brussels International Airport, Belgium
Distance from station: O 1339km
Actualización: 23/10/2021 12:20
Despejado
Despejado
 Viento del SO
Viento: SO 6 km/h
Temperatura: 10°C
Rocío: 8°C
Humedad: 88%
Barómetro: 1028 hPa
Resumen: Despejado
Visibility: greater than 10 km
2021/10/23 10:20 EBBR 231020Z 22003KT 190V250 CAVOK 10/08 Q1028 NOSIG